메인 페이지
METAR-TAF:

METAR-TAF

공항 :

블라디캅카스, 러시아

위도: 43-12-18N, 경도: 044-36-24E, 고도: 510m

현재 날씨관측

예보는 22분 전, 12:00시(UTC)에 발표되었습니다.
서남서4kt남남서풍과 북서풍을 오가는
온도 20°C
습도 68%
기압 1021 hPa
시정 10km 이상
고도 2900ft 상공 구름 많음

METAR: URMO 051200Z 25002MPS 210V320 9999 BKN029 20/14 Q1021 R09/010070 NOSIG RMK QFE721/0962

시각: 15:22 (12:22 UTC)

예보

예보는 1 시간 22분 전, 11:00시(UTC)에 발표되었습니다.
예보 대상 시간: 05일 12시부터 05일 21시까지 (UTC)
6kt, 순간 최대 풍속 16kt
시정 10km 이상
고도 2000ft 상공 구름 많음
일시적
05일 12시부터 05일 18시까지 (UTC)
고도 1500ft 상공 구름 많음, 적란운.
약한소나기

TAF: URMO 051100Z 0512/0521 26003G08MPS 9999 BKN020 TEMPO 0512/0518 -SHRA BKN015CB

4,000개 이상의 공항 관측 자료 및 예보 (METAR 및 TAF 보고).

지도상에서 검색 가능한 기상관측소가 노란 점과 빨간 점으로 표시되어 있습니다.

기상관측소 명을 보려면 표시 위로 마우스를 이동하세요.

날씨 관측과 예보를 보려면 클릭하세요.

지도 변경 : 확대하려면 엑스 표시가 있는 녹색 버튼, 축소하려면 빼기 표시가 있는 녹색 버튼, 다음 페이지의 지도를 보려면 녹색 화살표를 클릭하세요.


METAR-TAF: